Time;durP1;ratioP1;P1;durP2;ratioP2;P2;SDS_P1;SDS_P2;PMS_P1;PMS_P2;Temp;Humidity;BMP_temperature;BMP_pressure;BME280_temperature;BME280_humidity;BME280_pressure;Samples;Min_cycle;Max_cycle;Signal;HPM_P1;HPM_P2
2021/12/01 00:00:27;;;;;;;0.43;0.43;;;;;;;4.53;94.62;97596.66;4979170;28;20218;-73
2021/12/01 00:02:55;;;;;;;0.53;0.53;;;;;;;4.49;95.12;97605.16;4979142;28;20228;-74
2021/12/01 00:05:29;;;;;;;0.60;0.60;;;;;;;4.43;96.52;97598.84;4979176;28;20211;-74
2021/12/01 00:07:56;;;;;;;0.80;0.63;;;;;;;4.44;95.78;97594.41;4979447;28;20214;-74
2021/12/01 00:10:25;;;;;;;1.07;0.80;;;;;;;4.40;97.15;97598.41;4979349;28;20207;-73
2021/12/01 00:12:52;;;;;;;1.33;0.60;;;;;;;4.45;95.07;97581.06;4979007;28;20722;-73
2021/12/01 00:15:19;;;;;;;0.50;0.50;;;;;;;4.37;96.95;97583.00;4979176;28;20243;-74
2021/12/01 00:17:46;;;;;;;0.70;0.70;;;;;;;4.32;97.36;97569.59;4979060;28;20659;-74
2021/12/01 00:20:16;;;;;;;1.10;0.70;;;;;;;4.27;98.72;97574.63;4979104;28;20277;-73
2021/12/01 00:22:42;;;;;;;0.70;0.70;;;;;;;4.27;98.79;97585.16;4979070;28;20204;-74
2021/12/01 00:25:11;;;;;;;1.90;0.90;;;;;;;4.24;99.25;97575.81;4979095;28;20200;-74
2021/12/01 00:27:38;;;;;;;0.87;0.70;;;;;;;4.24;99.10;97569.75;4979036;28;20287;-74
2021/12/01 00:30:06;;;;;;;0.67;0.67;;;;;;;4.24;99.99;97573.19;4978728;28;20283;-74
2021/12/01 00:32:34;;;;;;;1.33;0.70;;;;;;;4.15;100.00;97570.88;4978469;28;20626;-74
2021/12/01 00:35:01;;;;;;;0.70;0.70;;;;;;;4.17;100.00;97563.63;4978844;28;20204;-73
2021/12/01 00:37:28;;;;;;;1.47;0.70;;;;;;;4.17;99.84;97579.41;4978849;28;20212;-73
2021/12/01 00:39:54;;;;;;;0.83;0.80;;;;;;;4.09;100.00;97575.09;4978842;28;20196;-74
2021/12/01 00:42:21;;;;;;;1.00;0.77;;;;;;;4.10;100.00;97570.63;4978649;28;20311;-74
2021/12/01 00:44:55;;;;;;;0.87;0.87;;;;;;;4.06;100.00;97561.50;4978867;28;20642;-74
2021/12/01 00:47:30;;;;;;;1.07;0.97;;;;;;;4.09;100.00;97558.50;4978300;28;20192;-74
2021/12/01 00:49:56;;;;;;;0.50;0.50;;;;;;;4.15;100.00;97555.91;4978803;28;20195;-74
2021/12/01 00:52:23;;;;;;;0.60;0.60;;;;;;;4.16;100.00;97557.53;4978584;28;20541;-74
2021/12/01 00:54:50;;;;;;;2.00;0.67;;;;;;;4.11;100.00;97551.25;4978883;28;20227;-74
2021/12/01 00:57:16;;;;;;;0.57;0.57;;;;;;;4.15;100.00;97553.28;4978527;28;20516;-74
2021/12/01 00:59:43;;;;;;;0.50;0.47;;;;;;;4.11;100.00;97533.63;4978293;28;20201;-74
2021/12/01 01:02:09;;;;;;;1.90;0.97;;;;;;;4.02;100.00;97534.78;4978517;28;20222;-74
2021/12/01 01:04:35;;;;;;;1.17;0.80;;;;;;;4.03;100.00;97528.50;4977600;28;20659;-74
2021/12/01 01:07:02;;;;;;;0.70;0.70;;;;;;;4.10;100.00;97525.94;4977641;28;20204;-74
2021/12/01 01:09:31;;;;;;;0.67;0.63;;;;;;;4.09;99.85;97535.66;4977296;28;20508;-74
2021/12/01 01:17:37;;;;;;;0.50;0.50;;;;;;;4.16;98.73;97531.25;4977724;28;20182;-74
2021/12/01 01:20:12;;;;;;;0.60;0.60;;;;;;;4.14;99.68;97527.16;4977486;28;20203;-74
2021/12/01 01:22:40;;;;;;;1.17;0.73;;;;;;;4.17;99.19;97513.66;4977122;28;20282;-74
2021/12/01 01:25:08;;;;;;;1.13;0.60;;;;;;;4.17;98.60;97513.66;4977134;28;20295;-74
2021/12/01 01:27:35;;;;;;;0.43;0.43;;;;;;;4.15;99.46;97508.56;4977383;28;20511;-74
2021/12/01 01:30:03;;;;;;;1.13;0.70;;;;;;;4.15;99.63;97508.56;4977267;28;20291;-74
2021/12/01 01:32:29;;;;;;;0.63;0.53;;;;;;;4.22;97.72;97508.63;4977241;28;20191;-74
2021/12/01 01:34:56;;;;;;;0.93;0.80;;;;;;;4.16;98.58;97514.66;4977505;28;20206;-74
2021/12/01 01:37:23;;;;;;;1.77;0.60;;;;;;;4.27;96.82;97519.38;4977135;28;20207;-73
2021/12/01 01:39:49;;;;;;;0.83;0.80;;;;;;;4.25;97.92;97524.03;4977146;28;20210;-73
2021/12/01 01:42:16;;;;;;;0.70;0.70;;;;;;;4.22;97.71;97516.50;4977182;28;20216;-74
2021/12/01 01:44:42;;;;;;;0.97;0.70;;;;;;;4.21;98.20;97509.63;4977107;28;20530;-74
2021/12/01 01:47:11;;;;;;;1.20;0.70;;;;;;;4.30;96.30;97516.38;4977112;28;20207;-73
2021/12/01 01:49:47;;;;;;;1.20;0.60;;;;;;;4.31;96.65;97513.56;4977276;28;20235;-73
2021/12/01 01:52:13;;;;;;;2.20;0.90;;;;;;;4.22;99.16;97506.00;4976970;28;20290;-74
2021/12/01 01:54:39;;;;;;;1.93;0.83;;;;;;;4.33;96.36;97508.06;4976602;28;20223;-74
2021/12/01 01:57:06;;;;;;;0.97;0.90;;;;;;;4.29;97.81;97498.97;4977114;28;20222;-74
2021/12/01 01:59:32;;;;;;;1.23;0.90;;;;;;;4.32;96.76;97498.56;4975708;28;20199;-73
2021/12/01 02:02:01;;;;;;;1.10;1.00;;;;;;;4.31;96.14;97491.69;4976752;28;20646;-73
2021/12/01 02:04:32;;;;;;;0.80;0.80;;;;;;;4.25;97.76;97485.38;4939702;28;1088074;-74
2021/12/01 02:07:00;;;;;;;1.27;1.17;;;;;;;4.27;97.81;97491.25;4977955;28;20477;-73
2021/12/01 02:09:28;;;;;;;1.20;1.00;;;;;;;4.32;97.36;97488.88;4977294;28;20611;-74
2021/12/01 02:11:58;;;;;;;1.80;1.03;;;;;;;4.31;96.55;97479.34;4977777;28;20210;-74
2021/12/01 02:14:25;;;;;;;0.90;0.90;;;;;;;4.29;97.80;97483.19;4977324;28;20235;-74
2021/12/01 02:16:52;;;;;;;1.03;0.93;;;;;;;4.29;97.08;97478.72;4977595;28;20192;-74
2021/12/01 02:19:19;;;;;;;1.23;1.13;;;;;;;4.28;97.71;97463.94;4977253;28;20204;-73
2021/12/01 02:21:45;;;;;;;1.47;1.00;;;;;;;4.30;97.06;97472.44;4977163;28;20220;-74
2021/12/01 02:24:14;;;;;;;1.30;1.00;;;;;;;4.32;96.96;97467.81;4977157;28;20526;-74
2021/12/01 02:26:45;;;;;;;2.33;1.20;;;;;;;4.28;99.09;97455.22;4977230;28;20200;-73
2021/12/01 02:29:16;;;;;;;1.00;0.90;;;;;;;4.28;97.88;97447.34;4977524;28;20203;-73
2021/12/01 02:31:45;;;;;;;1.43;1.33;;;;;;;4.28;98.40;97444.69;4977756;28;20203;-74
2021/12/01 02:34:16;;;;;;;1.13;0.93;;;;;;;4.34;97.17;97444.75;4977065;28;20230;-74
2021/12/01 02:36:45;;;;;;;1.00;0.90;;;;;;;4.34;97.05;97436.84;4977112;28;20588;-73
2021/12/01 02:39:15;;;;;;;0.90;0.90;;;;;;;4.40;96.52;97440.53;4977439;28;20279;-73
2021/12/01 02:41:43;;;;;;;0.90;0.80;;;;;;;4.33;97.54;97432.59;4977316;28;20215;-73
2021/12/01 02:44:11;;;;;;;0.80;0.80;;;;;;;4.38;95.76;97424.13;4977011;28;20666;-74
2021/12/01 02:46:38;;;;;;;0.80;0.80;;;;;;;4.40;96.21;97412.41;4977032;28;20250;-73
2021/12/01 02:49:05;;;;;;;0.80;0.80;;;;;;;4.41;96.51;97423.72;4977010;28;20203;-74
2021/12/01 02:51:35;;;;;;;0.80;0.80;;;;;;;4.37;96.72;97411.97;4976998;28;20216;-74
2021/12/01 02:54:01;;;;;;;0.80;0.80;;;;;;;4.41;95.50;97402.66;4977241;28;20228;-74
2021/12/01 02:56:30;;;;;;;0.70;0.70;;;;;;;4.41;95.96;97402.66;4977285;28;20196;-74
2021/12/01 02:58:57;;;;;;;1.40;0.80;;;;;;;4.44;96.24;97402.28;4977207;28;20210;-74
2021/12/01 03:01:24;;;;;;;1.50;0.60;;;;;;;4.45;95.13;97391.56;4977132;28;20220;-73
2021/12/01 03:03:52;;;;;;;1.00;0.90;;;;;;;4.48;95.24;97390.38;4976956;28;20227;-74
2021/12/01 03:06:20;;;;;;;0.77;0.77;;;;;;;4.46;95.01;97395.00;4976910;28;20497;-73
2021/12/01 03:08:47;;;;;;;0.77;0.77;;;;;;;4.47;94.68;97386.91;4976847;28;20204;-73
2021/12/01 03:11:15;;;;;;;0.70;0.70;;;;;;;4.50;94.20;97388.34;4980084;28;20296;-73
2021/12/01 03:13:42;;;;;;;1.07;0.70;;;;;;;4.47;95.28;97386.91;4980531;28;20224;-74
2021/12/01 03:16:09;;;;;;;0.80;0.70;;;;;;;4.47;94.89;97379.00;4980236;28;20206;-73
2021/12/01 03:18:35;;;;;;;1.20;0.80;;;;;;;4.53;94.38;97369.53;4980506;28;20214;-73
2021/12/01 03:21:02;;;;;;;0.83;0.70;;;;;;;4.52;94.96;97362.66;4980033;28;20201;-73
2021/12/01 03:23:29;;;;;;;0.60;0.60;;;;;;;4.54;94.40;97363.25;4979892;28;20236;-74
2021/12/01 03:25:56;;;;;;;1.20;0.90;;;;;;;4.56;93.72;97355.97;4980367;28;20275;-73
2021/12/01 03:28:23;;;;;;;1.67;0.80;;;;;;;4.54;94.64;97344.81;4980334;28;20188;-73
2021/12/01 03:30:50;;;;;;;0.70;0.70;;;;;;;4.54;94.28;97345.66;4979955;28;20497;-74
2021/12/01 03:33:19;;;;;;;0.80;0.70;;;;;;;4.55;94.96;97344.63;4980152;28;20234;-73
2021/12/01 03:35:49;;;;;;;0.70;0.70;;;;;;;4.53;94.78;97337.94;4980225;28;20208;-73
2021/12/01 03:38:16;;;;;;;0.80;0.80;;;;;;;4.59;94.29;97345.03;4980188;28;20556;-74
2021/12/01 03:40:43;;;;;;;0.97;0.77;;;;;;;4.63;93.86;97339.19;4979834;28;20580;-73
2021/12/01 03:43:10;;;;;;;0.70;0.70;;;;;;;4.71;93.24;97330.28;4979881;28;20228;-73
2021/12/01 03:45:36;;;;;;;1.60;0.90;;;;;;;4.69;94.01;97327.84;4979687;28;20199;-73
2021/12/01 03:48:03;;;;;;;2.30;0.80;;;;;;;4.68;94.48;97335.94;4979928;28;20196;-73
2021/12/01 03:50:29;;;;;;;0.97;0.73;;;;;;;4.67;94.20;97329.88;4979858;28;20298;-73
2021/12/01 03:52:56;;;;;;;0.80;0.80;;;;;;;4.68;93.81;97326.25;4979867;28;20529;-73
2021/12/01 03:55:23;;;;;;;0.80;0.70;;;;;;;4.69;93.67;97324.41;4979843;28;20278;-74
2021/12/01 03:57:49;;;;;;;0.77;0.70;;;;;;;4.74;93.62;97316.75;4979785;28;20204;-74
2021/12/01 04:00:20;;;;;;;0.83;0.83;;;;;;;4.78;93.96;97310.84;4979947;28;20288;-74
2021/12/01 04:02:47;;;;;;;0.60;0.60;;;;;;;4.76;92.77;97309.44;4979472;28;20218;-73
2021/12/01 04:05:13;;;;;;;0.93;0.80;;;;;;;4.69;94.89;97306.78;4979578;28;20526;-74
2021/12/01 04:07:41;;;;;;;0.93;0.90;;;;;;;4.67;95.19;97300.94;4979487;28;20327;-74
2021/12/01 04:10:11;;;;;;;0.90;0.90;;;;;;;4.73;94.18;97296.66;4979537;28;20196;-73
2021/12/01 04:12:38;;;;;;;0.90;0.70;;;;;;;4.69;95.71;97292.81;4979166;28;20184;-74
2021/12/01 04:15:05;;;;;;;1.20;0.80;;;;;;;4.69;95.43;97288.38;4979098;28;20604;-73
2021/12/01 04:17:32;;;;;;;1.37;0.90;;;;;;;4.67;95.85;97284.31;4979229;28;20204;-73
2021/12/01 04:19:58;;;;;;;0.73;0.73;;;;;;;4.68;96.24;97278.84;4978830;28;20611;-73
2021/12/01 04:22:25;;;;;;;0.90;0.90;;;;;;;4.70;95.99;97268.13;4978211;28;20227;-74
2021/12/01 04:24:51;;;;;;;1.00;0.80;;;;;;;4.72;95.91;97258.19;4979105;28;20220;-73
2021/12/01 04:27:18;;;;;;;0.70;0.70;;;;;;;4.70;95.88;97250.50;4979393;28;20295;-74
2021/12/01 04:29:45;;;;;;;0.90;0.90;;;;;;;4.70;95.85;97242.59;4979104;28;20295;-74
2021/12/01 04:32:11;;;;;;;2.00;0.70;;;;;;;4.78;94.78;97245.03;4978577;28;20291;-74
2021/12/01 04:34:38;;;;;;;1.10;1.00;;;;;;;4.82;95.62;97245.44;4978641;28;20231;-73
2021/12/01 04:37:05;;;;;;;0.90;0.90;;;;;;;4.76;96.31;97239.19;4978656;28;20227;-74
2021/12/01 04:39:32;;;;;;;1.20;0.67;;;;;;;4.75;96.12;97226.22;4978894;28;20204;-73
2021/12/01 04:42:04;;;;;;;0.93;0.80;;;;;;;4.68;96.52;97226.19;4978333;28;20239;-74
2021/12/01 04:44:31;;;;;;;0.97;0.70;;;;;;;4.70;97.12;97210.22;4979178;28;20331;-74
2021/12/01 04:47:02;;;;;;;1.63;0.80;;;;;;;4.71;96.50;97203.94;4978563;28;20210;-74
2021/12/01 04:49:28;;;;;;;1.10;0.80;;;;;;;4.73;96.93;97207.97;4979193;28;20192;-74
2021/12/01 04:51:57;;;;;;;0.90;0.90;;;;;;;4.73;96.49;97196.63;4979248;28;20189;-73
2021/12/01 04:54:26;;;;;;;1.33;0.90;;;;;;;4.78;97.24;97188.91;4978503;28;20224;-74
2021/12/01 04:56:53;;;;;;;1.13;1.03;;;;;;;4.86;95.89;97192.19;4978490;28;20299;-73
2021/12/01 04:59:21;;;;;;;1.87;0.80;;;;;;;4.83;95.46;97179.41;4978538;28;20203;-74
2021/12/01 05:01:48;;;;;;;0.80;0.73;;;;;;;4.79;95.83;97169.50;4978555;28;20232;-74
2021/12/01 05:04:15;;;;;;;1.33;0.90;;;;;;;4.79;96.12;97167.66;4978253;28;20235;-73
2021/12/01 05:06:42;;;;;;;1.20;1.10;;;;;;;4.84;95.29;97161.78;4978397;28;20199;-73
2021/12/01 05:09:09;;;;;;;0.90;0.73;;;;;;;4.83;95.44;97154.88;4977989;28;20622;-73
2021/12/01 05:11:35;;;;;;;1.10;1.00;;;;;;;4.85;95.52;97156.34;4977971;28;20198;-74
2021/12/01 05:14:02;;;;;;;2.40;0.90;;;;;;;4.83;96.37;97150.44;4978145;28;20224;-74
2021/12/01 05:16:28;;;;;;;0.80;0.80;;;;;;;4.83;96.11;97144.34;4977942;28;20210;-74
2021/12/01 05:18:55;;;;;;;0.87;0.70;;;;;;;4.84;96.55;97141.53;4977803;28;20283;-74
2021/12/01 05:21:21;;;;;;;1.00;0.90;;;;;;;4.86;95.36;97134.25;4977773;28;20200;-74
2021/12/01 05:23:48;;;;;;;1.07;0.80;;;;;;;4.95;95.24;97140.09;4977691;28;20534;-74
2021/12/01 05:26:14;;;;;;;1.00;0.80;;;;;;;4.94;94.65;97133.22;4977916;28;20196;-74
2021/12/01 05:28:42;;;;;;;0.80;0.80;;;;;;;4.94;95.33;97139.31;4977971;28;20208;-73
2021/12/01 05:31:09;;;;;;;0.80;0.80;;;;;;;4.93;95.44;97134.22;4977904;28;20200;-74
2021/12/01 05:33:36;;;;;;;0.80;0.70;;;;;;;5.01;94.32;97126.91;4978053;28;20223;-73
2021/12/01 05:36:03;;;;;;;1.33;0.80;;;;;;;5.01;95.62;97126.91;4977328;28;20192;-73
2021/12/01 05:38:29;;;;;;;0.90;0.83;;;;;;;5.08;94.99;97125.09;4977377;28;20203;-74
2021/12/01 05:40:56;;;;;;;0.50;0.50;;;;;;;5.15;93.22;97130.34;4977618;28;20196;-73
2021/12/01 05:43:22;;;;;;;0.40;0.40;;;;;;;5.22;92.01;97128.47;4977108;28;20232;-73
2021/12/01 05:45:49;;;;;;;0.87;0.60;;;;;;;5.18;93.18;97122.81;4976851;28;20204;-73
2021/12/01 05:48:16;;;;;;;1.10;0.50;;;;;;;5.34;92.70;97111.78;4977152;28;20196;-73
2021/12/01 05:50:43;;;;;;;0.70;0.50;;;;;;;5.28;92.19;97117.91;4977504;28;20246;-76
2021/12/01 05:53:10;;;;;;;2.30;1.77;;;;;;;5.33;92.31;97109.41;4977385;28;20314;-74
2021/12/01 05:55:38;;;;;;;0.60;0.60;;;;;;;5.43;92.30;97097.38;4977102;28;20227;-74
2021/12/01 05:58:05;;;;;;;1.00;0.50;;;;;;;5.36;92.92;97093.16;4977031;28;20603;-74
2021/12/01 06:00:31;;;;;;;0.87;0.50;;;;;;;5.46;90.64;97093.50;4977177;28;20311;-73
2021/12/01 06:02:57;;;;;;;0.50;0.50;;;;;;;5.57;89.79;97096.28;4976764;28;20631;-73
2021/12/01 06:05:24;;;;;;;1.53;0.60;;;;;;;5.51;90.57;97091.03;4976661;28;20208;-73
2021/12/01 06:07:51;;;;;;;0.77;0.60;;;;;;;5.57;89.39;97083.09;4976690;28;20214;-74
2021/12/01 06:10:18;;;;;;;1.37;0.70;;;;;;;5.54;90.30;97080.91;4977274;28;20210;-74
2021/12/01 06:12:46;;;;;;;0.50;0.50;;;;;;;5.56;89.63;97078.06;4976866;28;20199;-72
2021/12/01 06:15:15;;;;;;;0.50;0.43;;;;;;;5.50;90.41;97074.44;4976542;28;20290;-73
2021/12/01 06:17:42;;;;;;;1.53;0.80;;;;;;;5.58;89.36;97061.00;4976297;28;20211;-73
2021/12/01 06:20:11;;;;;;;0.80;0.50;;;;;;;5.56;89.92;97054.34;4976728;28;20207;-73
2021/12/01 06:22:38;;;;;;;0.70;0.50;;;;;;;5.59;90.13;97057.34;4976287;28;20235;-74
2021/12/01 06:25:04;;;;;;;0.50;0.50;;;;;;;5.69;88.79;97047.16;4976870;28;20265;-75
2021/12/01 06:27:31;;;;;;;0.60;0.60;;;;;;;5.62;90.53;97042.94;4976660;28;20283;-76
2021/12/01 06:29:57;;;;;;;1.43;0.70;;;;;;;5.57;90.01;97037.50;4977129;28;20294;-74
2021/12/01 06:32:24;;;;;;;0.47;0.40;;;;;;;5.58;90.40;97039.09;4976374;28;20600;-73
2021/12/01 06:34:50;;;;;;;0.30;0.30;;;;;;;5.60;89.49;97042.31;4976390;28;20238;-73
2021/12/01 06:37:18;;;;;;;0.50;0.40;;;;;;;5.61;89.71;97043.97;4976278;28;20493;-74
2021/12/01 06:39:45;;;;;;;1.10;0.40;;;;;;;5.78;87.94;97042.41;4977068;28;20283;-74
2021/12/01 06:42:12;;;;;;;1.10;0.40;;;;;;;5.82;87.88;97041.00;4976707;28;20216;-73
2021/12/01 06:44:38;;;;;;;0.40;0.40;;;;;;;5.87;86.67;97041.16;4977305;28;20224;-73
2021/12/01 06:47:05;;;;;;;1.47;0.40;;;;;;;5.75;88.94;97034.94;4980366;28;20492;-74
2021/12/01 06:49:31;;;;;;;0.40;0.40;;;;;;;5.68;89.31;97028.91;4980170;28;20192;-73
2021/12/01 06:51:58;;;;;;;0.47;0.47;;;;;;;5.64;90.50;97019.78;4979946;28;20584;-74
2021/12/01 06:54:24;;;;;;;0.50;0.50;;;;;;;5.72;89.20;97017.72;4979685;28;20674;-73
2021/12/01 06:56:51;;;;;;;0.63;0.50;;;;;;;5.69;89.38;97009.41;4980248;28;20214;-74
2021/12/01 06:59:18;;;;;;;1.07;0.40;;;;;;;5.73;88.98;97005.31;4980464;28;20215;-73
2021/12/01 07:01:44;;;;;;;0.87;0.50;;;;;;;5.78;89.11;96993.13;4980390;28;20196;-73
2021/12/01 07:04:13;;;;;;;1.43;0.50;;;;;;;5.76;89.29;96995.19;4979817;28;20230;-73
2021/12/01 07:06:40;;;;;;;1.03;0.60;;;;;;;5.97;87.09;96988.75;4979760;28;20674;-73
2021/12/01 07:09:07;;;;;;;0.57;0.50;;;;;;;6.10;85.96;96994.72;4980163;28;20192;-72
2021/12/01 07:11:33;;;;;;;0.83;0.47;;;;;;;6.10;86.19;96984.16;4980148;28;20280;-71
2021/12/01 07:13:59;;;;;;;1.03;0.50;;;;;;;6.10;86.07;96986.00;4980046;28;20303;-72
2021/12/01 07:16:28;;;;;;;1.03;0.50;;;;;;;6.22;84.25;96985.06;4980021;28;20199;-71
2021/12/01 07:18:54;;;;;;;0.97;0.50;;;;;;;6.27;84.05;96982.59;4979958;28;20303;-71
2021/12/01 07:21:20;;;;;;;2.17;0.60;;;;;;;6.15;85.97;96970.34;4979671;28;20604;-72
2021/12/01 07:23:47;;;;;;;1.30;0.60;;;;;;;6.22;84.85;96969.25;4979475;28;20234;-74
2021/12/01 07:26:13;;;;;;;3.93;0.83;;;;;;;6.20;84.54;96973.13;4979884;28;20295;-72
2021/12/01 07:28:40;;;;;;;2.37;0.63;;;;;;;6.37;82.90;96956.50;4979952;28;20231;-72
2021/12/01 07:31:06;;;;;;;0.77;0.60;;;;;;;6.30;84.61;96934.66;4979492;28;20538;-71
2021/12/01 07:33:33;;;;;;;1.80;0.50;;;;;;;6.30;84.66;96947.03;4980374;28;20226;-71
2021/12/01 07:36:00;;;;;;;0.60;0.53;;;;;;;6.36;83.09;96933.78;4979739;28;20197;-71
2021/12/01 07:38:26;;;;;;;0.40;0.40;;;;;;;6.34;83.57;96927.88;4979813;28;20199;-72
2021/12/01 07:40:53;;;;;;;0.50;0.50;;;;;;;6.33;84.33;96917.56;4979703;28;20195;-73
2021/12/01 07:43:19;;;;;;;0.33;0.33;;;;;;;6.50;82.31;96918.59;4979336;28;20314;-71
2021/12/01 07:45:46;;;;;;;1.00;0.40;;;;;;;6.48;82.66;96915.38;4979459;28;20193;-71
2021/12/01 07:48:13;;;;;;;0.50;0.50;;;;;;;6.49;82.60;96911.69;4979446;28;20300;-71
2021/12/01 07:50:40;;;;;;;0.93;0.50;;;;;;;6.50;82.15;96915.94;4979526;28;20522;-71
2021/12/01 07:53:06;;;;;;;0.63;0.40;;;;;;;6.50;83.14;96894.81;4979446;28;20226;-71
2021/12/01 07:55:33;;;;;;;1.07;0.57;;;;;;;6.60;82.05;96881.94;4979452;28;20290;-71
2021/12/01 07:57:59;;;;;;;2.40;0.57;;;;;;;6.59;82.72;96880.28;4979366;28;20295;-72
2021/12/01 08:00:26;;;;;;;1.73;0.53;;;;;;;6.58;82.51;96871.59;4979458;28;20203;-72
2021/12/01 08:02:53;;;;;;;0.37;0.33;;;;;;;6.62;82.68;96871.94;4979512;28;20228;-73
2021/12/01 08:05:20;;;;;;;0.93;0.60;;;;;;;6.59;83.27;96865.28;4979174;28;20216;-71
2021/12/01 08:07:46;;;;;;;0.40;0.40;;;;;;;6.65;82.37;96853.81;4979323;28;20199;-71
2021/12/01 08:10:13;;;;;;;3.90;0.40;;;;;;;6.69;81.65;96854.19;4978998;28;20279;-73
2021/12/01 08:12:39;;;;;;;1.27;0.40;;;;;;;6.71;82.29;96845.00;4979353;28;20200;-73
2021/12/01 08:15:07;;;;;;;3.00;0.93;;;;;;;6.78;82.46;96834.34;4978936;28;20208;-70
2021/12/01 08:17:34;;;;;;;0.77;0.50;;;;;;;6.80;81.66;96834.91;4979168;28;20207;-72
2021/12/01 08:20:00;;;;;;;0.43;0.40;;;;;;;6.74;81.64;96831.34;4979180;28;20302;-73
2021/12/01 08:22:27;;;;;;;0.50;0.50;;;;;;;6.76;82.07;96825.84;4979046;28;20196;-73
2021/12/01 08:24:54;;;;;;;2.23;0.47;;;;;;;6.78;82.57;96827.22;4978704;28;20208;-71
2021/12/01 08:27:23;;;;;;;0.80;0.40;;;;;;;6.87;81.40;96823.22;4978984;28;20207;-71
2021/12/01 08:29:50;;;;;;;0.30;0.30;;;;;;;6.88;82.81;96818.75;4978868;28;20192;-71
2021/12/01 08:32:16;;;;;;;2.43;0.40;;;;;;;6.88;82.63;96813.47;4978507;28;20283;-71
2021/12/01 08:34:47;;;;;;;0.47;0.30;;;;;;;6.96;81.79;96813.94;4978855;28;20224;-73
2021/12/01 08:37:15;;;;;;;1.50;0.50;;;;;;;7.03;81.44;96800.63;4978715;28;20283;-72
2021/12/01 08:39:41;;;;;;;0.77;0.30;;;;;;;7.05;81.51;96809.94;4978757;28;20200;-71
2021/12/01 08:42:10;;;;;;;0.60;0.50;;;;;;;7.12;81.48;96801.94;4978490;28;20578;-72
2021/12/01 08:44:36;;;;;;;0.47;0.43;;;;;;;7.21;81.77;96798.72;4978575;28;20232;-73
2021/12/01 08:47:03;;;;;;;0.30;0.30;;;;;;;7.33;80.11;96799.53;4978694;28;20531;-72
2021/12/01 08:49:29;;;;;;;1.50;0.40;;;;;;;7.37;80.71;96784.81;4978417;28;20659;-72
2021/12/01 08:51:56;;;;;;;1.07;0.40;;;;;;;7.48;78.86;96785.88;4978320;28;20514;-70
2021/12/01 08:54:23;;;;;;;0.40;0.40;;;;;;;7.55;79.03;96771.50;4978293;28;20230;-73
2021/12/01 08:56:49;;;;;;;0.23;0.23;;;;;;;7.57;79.46;96779.19;4978749;28;20189;-72
2021/12/01 08:59:15;;;;;;;0.57;0.37;;;;;;;7.63;78.96;96772.97;4978506;28;20199;-71
2021/12/01 09:01:42;;;;;;;0.57;0.40;;;;;;;7.67;80.40;96769.66;4978201;28;20241;-72
2021/12/01 09:04:08;;;;;;;0.30;0.30;;;;;;;7.77;78.43;96755.81;4977817;28;20545;-68
2021/12/01 09:06:35;;;;;;;0.30;0.30;;;;;;;8.01;79.35;96763.47;4978335;28;20200;-68
2021/12/01 09:09:01;;;;;;;0.40;0.40;;;;;;;8.13;78.46;96758.97;4977700;28;20611;-68
2021/12/01 09:11:28;;;;;;;0.57;0.30;;;;;;;8.32;78.06;96747.19;4977795;28;20291;-68
2021/12/01 09:13:55;;;;;;;0.60;0.40;;;;;;;8.45;77.27;96735.50;4978006;28;20216;-68
2021/12/01 09:16:22;;;;;;;0.30;0.30;;;;;;;8.55;76.87;96738.38;4978183;28;20275;-67
2021/12/01 09:18:49;;;;;;;0.20;0.20;;;;;;;8.54;76.35;96729.59;4978101;28;20196;-69
2021/12/01 09:21:16;;;;;;;0.40;0.40;;;;;;;8.51;76.57;96729.28;4978167;28;20204;-68
2021/12/01 09:23:43;;;;;;;0.30;0.30;;;;;;;8.51;75.30;96734.59;4977644;28;20231;-68
2021/12/01 09:26:09;;;;;;;0.30;0.30;;;;;;;8.45;76.22;96727.56;4977995;28;20229;-68
2021/12/01 09:28:36;;;;;;;0.30;0.30;;;;;;;8.42;76.04;96725.41;4977427;28;20195;-68
2021/12/01 09:31:03;;;;;;;1.27;0.30;;;;;;;8.50;75.56;96728.47;4977785;28;20219;-69
2021/12/01 09:33:29;;;;;;;0.50;0.40;;;;;;;8.49;75.15;96703.03;4977703;28;20220;-68
2021/12/01 09:35:57;;;;;;;0.20;0.20;;;;;;;8.39;77.75;96696.75;4977532;28;20687;-67
2021/12/01 09:38:23;;;;;;;0.30;0.30;;;;;;;8.39;75.70;96688.81;4977640;28;20211;-69
2021/12/01 09:40:53;;;;;;;0.43;0.30;;;;;;;8.37;75.41;96677.66;4977686;28;20279;-68
2021/12/01 09:43:25;;;;;;;0.20;0.20;;;;;;;8.34;76.15;96676.28;4977295;28;20314;-68
2021/12/01 09:45:52;;;;;;;0.20;0.20;;;;;;;8.33;75.80;96673.88;4977485;28;20587;-68
2021/12/01 09:48:19;;;;;;;1.90;0.40;;;;;;;8.33;75.85;96663.28;4977483;28;20204;-69
2021/12/01 09:50:47;;;;;;;0.20;0.20;;;;;;;8.37;75.72;96659.91;4977555;28;20211;-68
2021/12/01 09:53:14;;;;;;;1.03;0.20;;;;;;;8.41;75.05;96661.03;4977371;28;20258;-69
2021/12/01 09:55:41;;;;;;;1.13;0.30;;;;;;;8.36;76.40;96641.59;4977455;28;20544;-68
2021/12/01 09:58:10;;;;;;;1.07;0.37;;;;;;;8.40;76.13;96642.75;4977408;28;20192;-68
2021/12/01 10:00:40;;;;;;;0.30;0.30;;;;;;;8.41;75.25;96628.47;4977267;28;20204;-67
2021/12/01 10:03:07;;;;;;;0.40;0.20;;;;;;;8.43;76.15;96619.25;4977003;28;20259;-68
2021/12/01 10:05:52;;;;;;;1.03;0.20;;;;;;;8.47;76.81;96617.72;4977258;28;20215;-68
2021/12/01 10:08:58;;;;;;;1.23;0.30;;;;;;;8.54;75.51;96606.97;4977113;28;20203;-68
2021/12/01 10:11:29;;;;;;;0.20;0.20;;;;;;;8.61;75.16;96618.22;4972570;28;20345;-68
2021/12/01 10:13:57;;;;;;;0.30;0.30;;;;;;;8.74;74.91;96618.66;4976884;28;20232;-68
2021/12/01 10:16:26;;;;;;;0.30;0.20;;;;;;;8.73;75.77;96613.63;4977005;28;20207;-68
2021/12/01 10:19:00;;;;;;;0.87;0.27;;;;;;;8.88;74.24;96619.16;4977342;28;20207;-68
2021/12/01 10:21:36;;;;;;;0.30;0.30;;;;;;;8.86;74.64;96615.94;4980936;28;20206;-68
2021/12/01 10:24:16;;;;;;;0.63;0.40;;;;;;;8.90;73.44;96617.06;4980655;28;20234;-68
2021/12/01 10:26:46;;;;;;;0.30;0.30;;;;;;;8.87;73.54;96599.00;4980952;28;20196;-68
2021/12/01 10:29:16;;;;;;;0.30;0.30;;;;;;;8.94;75.70;96589.84;4981123;28;20196;-69
2021/12/01 10:31:49;;;;;;;0.77;0.33;;;;;;;9.07;75.69;96586.03;4981254;28;20207;-68
2021/12/01 10:34:21;;;;;;;0.60;0.30;;;;;;;9.10;73.47;96569.66;4980516;28;20733;-68
2021/12/01 10:36:50;;;;;;;0.30;0.30;;;;;;;9.11;74.00;96558.81;4980959;28;20196;-68
2021/12/01 10:39:18;;;;;;;1.57;0.37;;;;;;;9.28;73.07;96564.03;4980840;28;20192;-68
2021/12/01 10:41:44;;;;;;;0.30;0.30;;;;;;;9.40;72.80;96564.69;4980717;28;20232;-68
2021/12/01 10:44:14;;;;;;;0.30;0.30;;;;;;;9.31;72.83;96555.56;4980684;28;20227;-69
2021/12/01 10:46:53;;;;;;;0.30;0.30;;;;;;;9.21;73.36;96535.06;4980696;28;20227;-69
2021/12/01 10:49:35;;;;;;;0.30;0.30;;;;;;;9.17;73.43;96551.69;4980740;28;20219;-68
2021/12/01 10:52:02;;;;;;;0.40;0.40;;;;;;;9.23;73.26;96546.22;4980859;28;20203;-69
2021/12/01 10:54:28;;;;;;;0.50;0.30;;;;;;;9.32;72.19;96551.91;4980722;28;20304;-68
2021/12/01 10:57:18;;;;;;;1.90;0.30;;;;;;;9.38;73.30;96540.28;4980692;28;20203;-68
2021/12/01 10:59:52;;;;;;;1.30;0.30;;;;;;;9.35;72.98;96540.78;4980475;28;20231;-69
2021/12/01 11:02:20;;;;;;;0.30;0.30;;;;;;;9.48;72.34;96548.34;4980670;28;20547;-68
2021/12/01 11:04:50;;;;;;;0.27;0.27;;;;;;;9.48;73.09;96529.78;4980114;28;20623;-68
2021/12/01 11:07:29;;;;;;;0.47;0.30;;;;;;;9.42;73.72;96525.50;4980011;28;20239;-68
2021/12/01 11:10:14;;;;;;;0.20;0.20;;;;;;;9.35;73.63;96509.78;4980432;28;20279;-68
2021/12/01 11:12:43;;;;;;;0.30;0.30;;;;;;;9.40;75.62;96509.81;4979956;28;20584;-67
2021/12/01 11:15:20;;;;;;;0.27;0.27;;;;;;;9.25;76.26;96495.59;4979702;28;20192;-68
2021/12/01 11:17:47;;;;;;;0.40;0.40;;;;;;;9.20;76.14;96500.84;4979752;28;20558;-68
2021/12/01 11:20:32;;;;;;;0.40;0.40;;;;;;;9.14;77.36;96494.66;4980049;28;20196;-68
2021/12/01 11:23:13;;;;;;;0.20;0.20;;;;;;;9.17;76.87;96496.00;4979821;28;20306;-69
2021/12/01 11:25:40;;;;;;;0.30;0.30;;;;;;;9.13;77.21;96474.50;4980092;28;20202;-68
2021/12/01 11:28:09;;;;;;;0.83;0.30;;;;;;;9.17;78.78;96478.28;4979718;28;20285;-68
2021/12/01 11:30:40;;;;;;;0.40;0.40;;;;;;;9.10;79.34;96475.00;4979051;28;20196;-69
2021/12/01 11:33:06;;;;;;;0.30;0.30;;;;;;;9.10;79.43;96467.03;4979749;28;20505;-69
2021/12/01 11:35:33;;;;;;;0.37;0.20;;;;;;;9.17;79.34;96467.66;4978821;28;20283;-69
2021/12/01 11:38:00;;;;;;;1.60;0.37;;;;;;;9.21;80.85;96460.81;4977904;28;20478;-69
2021/12/01 11:40:27;;;;;;;0.23;0.23;;;;;;;9.37;78.11;96456.50;4978271;28;20210;-69
2021/12/01 11:42:55;;;;;;;0.30;0.30;;;;;;;9.58;78.10;96445.00;4979225;28;20223;-69
2021/12/01 11:45:21;;;;;;;1.10;0.40;;;;;;;9.74;76.70;96430.84;4979073;28;20222;-68
2021/12/01 11:47:48;;;;;;;0.43;0.40;;;;;;;9.94;76.47;96439.75;4979447;28;20275;-67
2021/12/01 11:50:33;;;;;;;0.30;0.30;;;;;;;9.90;75.11;96416.63;4979036;28;20580;-68